Time;durP1;ratioP1;P1;durP2;ratioP2;P2;SDS_P1;SDS_P2;PMS_P1;PMS_P2;Temp;Humidity;BMP_temperature;BMP_pressure;BME280_temperature;BME280_humidity;BME280_pressure;Samples;Min_cycle;Max_cycle;Signal;HPM_P1;HPM_P2
2023/02/01 00:01:20;;;;;;;4.60;3.10;;;3.30;99.90;;;;;;4943591;28;20051;-77
2023/02/01 00:03:48;;;;;;;11.65;4.28;;;3.30;99.90;;;;;;4943499;28;20082;-76
2023/02/01 00:06:16;;;;;;;2.47;2.28;;;3.30;99.90;;;;;;4935717;29;20055;-75
2023/02/01 00:08:44;;;;;;;6.47;3.55;;;3.30;99.90;;;;;;4931775;28;20399;-76
2023/02/01 00:11:14;;;;;;;3.15;2.95;;;3.40;99.90;;;;;;4937458;29;20047;-76
2023/02/01 00:13:42;;;;;;;3.37;3.17;;;3.50;99.90;;;;;;4942342;28;20051;-76
2023/02/01 00:16:19;;;;;;;3.78;3.47;;;3.40;99.90;;;;;;4946710;28;20059;-76
2023/02/01 00:18:49;;;;;;;2.72;2.53;;;3.40;99.90;;;;;;4931504;28;20504;-76
2023/02/01 00:21:19;;;;;;;3.03;2.58;;;3.40;99.90;;;;;;4948227;28;20074;-76
2023/02/01 00:23:46;;;;;;;3.45;2.80;;;3.40;99.90;;;;;;4946445;29;20058;-75
2023/02/01 00:26:34;;;;;;;2.92;2.63;;;3.40;99.90;;;;;;4934056;29;20054;-76
2023/02/01 00:29:05;;;;;;;3.85;3.53;;;3.50;99.90;;;;;;4944755;28;20046;-76
2023/02/01 00:31:33;;;;;;;2.70;2.42;;;3.50;99.90;;;;;;4937404;29;20078;-76
2023/02/01 00:34:01;;;;;;;3.35;3.05;;;3.60;99.90;;;;;;4930317;29;20039;-76
2023/02/01 00:36:29;;;;;;;3.78;3.33;;;3.50;99.90;;;;;;4937202;28;20046;-76
2023/02/01 00:38:57;;;;;;;2.90;2.38;;;3.50;99.90;;;;;;4943701;28;20055;-76
2023/02/01 00:41:26;;;;;;;4.55;3.25;;;3.60;99.90;;;;;;4962738;28;20051;-76
2023/02/01 00:43:54;;;;;;;7.10;3.15;;;3.60;99.90;;;;;;4948124;28;20059;-76
2023/02/01 00:46:22;;;;;;;3.40;3.10;;;3.50;99.90;;;;;;4956448;28;20059;-76
2023/02/01 00:48:50;;;;;;;3.53;2.95;;;3.50;99.90;;;;;;4954488;28;20110;-76
2023/02/01 00:51:24;;;;;;;4.05;3.30;;;3.60;99.90;;;;;;4965757;28;20051;-76
2023/02/01 00:53:53;;;;;;;4.63;3.03;;;3.50;99.90;;;;;;4953796;28;20062;-76
2023/02/01 00:56:22;;;;;;;3.28;3.00;;;3.50;99.90;;;;;;4933651;29;20039;-76
2023/02/01 00:58:50;;;;;;;2.90;2.70;;;3.50;99.90;;;;;;4937746;29;20052;-76
2023/02/01 01:01:24;;;;;;;3.20;2.85;;;3.50;99.90;;;;;;4937743;28;20051;-76
2023/02/01 01:03:55;;;;;;;3.80;3.45;;;3.50;99.90;;;;;;4947076;28;20034;-77
2023/02/01 01:06:26;;;;;;;3.30;2.70;;;3.50;99.90;;;;;;4950346;28;20069;-76
2023/02/01 01:08:55;;;;;;;3.22;2.83;;;3.30;99.90;;;;;;4961864;28;20035;-76
2023/02/01 01:11:28;;;;;;;3.35;3.05;;;3.20;99.90;;;;;;4960156;28;20062;-77
2023/02/01 01:13:57;;;;;;;3.28;3.08;;;3.00;99.90;;;;;;4962652;28;20067;-77
2023/02/01 01:16:27;;;;;;;3.08;2.72;;;3.00;99.90;;;;;;4968304;28;20046;-76
2023/02/01 01:18:55;;;;;;;3.42;2.90;;;2.90;99.90;;;;;;4966849;28;20035;-75
2023/02/01 01:21:24;;;;;;;3.30;3.00;;;2.70;99.90;;;;;;4964334;28;20038;-76
2023/02/01 01:23:52;;;;;;;2.58;2.17;;;2.60;99.90;;;;;;4962367;28;20066;-77
2023/02/01 01:26:23;;;;;;;3.72;3.38;;;2.50;99.90;;;;;;4966125;28;20043;-77
2023/02/01 01:28:51;;;;;;;3.63;3.00;;;2.50;99.90;;;;;;4955889;28;20046;-76
2023/02/01 01:31:20;;;;;;;4.85;3.55;;;2.40;99.90;;;;;;4967606;28;20040;-77
2023/02/01 01:33:51;;;;;;;4.38;4.05;;;2.50;99.90;;;;;;4967716;28;20059;-77
2023/02/01 01:36:21;;;;;;;2.83;2.63;;;2.40;99.90;;;;;;4967594;28;20040;-76
2023/02/01 01:38:49;;;;;;;3.10;2.78;;;2.40;99.90;;;;;;4954498;28;20286;-77
2023/02/01 01:41:28;;;;;;;5.72;4.07;;;2.40;99.90;;;;;;4960675;28;20046;-76
2023/02/01 01:44:00;;;;;;;4.22;3.83;;;2.40;99.90;;;;;;4917611;29;20043;-76
2023/02/01 01:46:40;;;;;;;3.53;3.22;;;2.40;99.90;;;;;;4945375;29;20062;-76
2023/02/01 01:49:14;;;;;;;3.20;2.67;;;2.40;99.90;;;;;;4936706;29;20351;-76
2023/02/01 01:51:51;;;;;;;6.38;2.92;;;2.30;99.90;;;;;;4941232;29;20690;-76
2023/02/01 01:54:25;;;;;;;6.68;3.97;;;2.30;99.90;;;;;;4935104;29;20089;-77
2023/02/01 01:56:58;;;;;;;3.97;2.63;;;2.30;99.90;;;;;;4948204;29;20048;-77
2023/02/01 01:59:31;;;;;;;7.68;2.70;;;2.30;99.90;;;;;;4947875;29;20059;-77
2023/02/01 02:01:59;;;;;;;3.63;2.92;;;2.30;99.90;;;;;;4907534;28;20432;-77
2023/02/01 02:04:28;;;;;;;3.90;3.05;;;2.30;99.90;;;;;;4941312;29;20052;-77
2023/02/01 02:07:11;;;;;;;3.45;3.15;;;2.30;99.90;;;;;;4937534;29;20060;-77
2023/02/01 02:09:39;;;;;;;5.20;4.75;;;2.30;99.90;;;;;;4945857;28;20415;-77
2023/02/01 02:12:14;;;;;;;2.70;2.50;;;2.30;99.90;;;;;;4947013;28;20051;-77
2023/02/01 02:14:42;;;;;;;3.03;2.72;;;2.30;99.90;;;;;;4943983;29;20522;-77
2023/02/01 02:17:32;;;;;;;3.90;3.45;;;2.30;99.90;;;;;;4943471;29;20043;-77
2023/02/01 02:20:37;;;;;;;4.35;4.05;;;2.40;99.90;;;;;;4937255;28;20448;-77
2023/02/01 02:23:29;;;;;;;5.43;4.20;;;2.40;99.90;;;;;;4948279;28;20622;-77
2023/02/01 02:26:14;;;;;;;6.18;3.40;;;2.40;99.90;;;;;;4944723;28;20098;-77
2023/02/01 02:28:47;;;;;;;6.15;3.97;;;2.40;99.90;;;;;;4939172;29;20310;-77
2023/02/01 02:31:50;;;;;;;5.28;3.78;;;2.40;99.90;;;;;;4945542;29;20047;-77
2023/02/01 02:34:38;;;;;;;5.25;4.75;;;2.40;99.90;;;;;;4937413;29;20057;-77
2023/02/01 02:37:21;;;;;;;5.22;3.50;;;2.50;99.90;;;;;;4919707;29;20043;-77
2023/02/01 02:40:11;;;;;;;4.38;3.72;;;2.50;99.90;;;;;;4917579;29;20059;-77
2023/02/01 02:49:02;;;;;;;7.40;5.25;;;2.40;99.90;;;;;;4937631;29;20532;-76
2023/02/01 02:54:50;;;;;;;5.00;4.60;;;2.50;99.90;;;;;;4912053;29;20786;-77
2023/02/01 03:05:54;;;;;;;6.75;4.63;;;2.30;99.90;;;;;;4914495;29;20044;-77
2023/02/01 03:08:28;;;;;;;5.90;5.30;;;2.40;99.90;;;;;;4934955;29;20052;-77
2023/02/01 03:11:07;;;;;;;5.35;4.38;;;2.40;99.90;;;;;;4930149;29;20054;-77
2023/02/01 03:13:58;;;;;;;5.95;5.40;;;2.40;99.90;;;;;;4939475;28;20055;-77
2023/02/01 03:16:47;;;;;;;7.10;5.10;;;2.50;99.90;;;;;;4946371;28;20039;-77
2023/02/01 03:19:29;;;;;;;5.85;4.28;;;2.50;99.90;;;;;;4917782;29;20047;-77
2023/02/01 03:22:03;;;;;;;4.20;3.80;;;2.50;99.90;;;;;;4946359;28;20058;-77
2023/02/01 03:24:37;;;;;;;4.28;3.88;;;2.50;99.90;;;;;;4935809;28;20066;-77
2023/02/01 03:27:11;;;;;;;8.30;4.75;;;2.60;99.90;;;;;;4931265;29;20056;-77
2023/02/01 03:30:05;;;;;;;4.00;2.80;;;2.60;99.90;;;;;;4939135;29;20044;-77
2023/02/01 03:32:57;;;;;;;4.90;4.55;;;2.60;99.90;;;;;;4932250;28;20044;-77
2023/02/01 03:35:39;;;;;;;4.13;3.50;;;2.60;99.90;;;;;;4938467;29;20500;-77
2023/02/01 03:38:29;;;;;;;5.85;3.42;;;2.70;99.90;;;;;;4934640;28;20047;-76
2023/02/01 03:41:19;;;;;;;4.13;3.83;;;2.70;99.90;;;;;;4927532;29;20496;-77
2023/02/01 03:44:23;;;;;;;3.92;3.63;;;2.70;99.90;;;;;;4926536;29;20063;-77
2023/02/01 03:47:12;;;;;;;3.53;3.22;;;2.80;99.90;;;;;;4930413;28;20040;-77
2023/02/01 03:49:45;;;;;;;8.13;4.32;;;2.80;99.90;;;;;;4935653;29;20071;-77
2023/02/01 03:52:17;;;;;;;5.40;4.60;;;2.90;99.90;;;;;;4934225;28;20070;-77
2023/02/01 03:54:46;;;;;;;3.92;3.58;;;2.90;99.90;;;;;;4945416;29;20521;-77
2023/02/01 03:57:20;;;;;;;3.95;3.50;;;2.90;99.90;;;;;;4933247;29;20062;-88
2023/02/01 03:59:48;;;;;;;4.10;3.70;;;2.90;99.90;;;;;;4940249;29;20051;-77
2023/02/01 04:02:16;;;;;;;3.28;3.08;;;2.90;99.90;;;;;;4938849;28;20219;-77
2023/02/01 04:04:45;;;;;;;3.88;3.47;;;2.90;99.90;;;;;;4942502;29;20051;-77
2023/02/01 04:07:16;;;;;;;;;;;2.90;99.90;;;;;;4950215;29;20055;-77
2023/02/01 04:09:44;;;;;;;3.83;3.53;;;2.90;99.90;;;;;;4939282;29;19933;-77
2023/02/01 04:12:13;;;;;;;4.80;4.30;;;2.90;99.90;;;;;;4944040;28;20428;-77
2023/02/01 04:14:42;;;;;;;5.88;4.22;;;2.90;99.90;;;;;;4947701;29;20054;-76
2023/02/01 04:17:09;;;;;;;4.72;4.22;;;2.90;99.90;;;;;;4940419;29;20047;-77
2023/02/01 04:19:37;;;;;;;4.75;3.45;;;3.00;99.90;;;;;;4942263;29;20397;-77
2023/02/01 04:22:09;;;;;;;2.67;2.47;;;3.00;99.90;;;;;;4939797;28;20571;-77
2023/02/01 04:24:37;;;;;;;3.22;2.88;;;3.00;99.90;;;;;;4937497;29;20044;-77
2023/02/01 04:27:05;;;;;;;4.18;3.78;;;3.00;99.90;;;;;;4942716;29;20311;-77
2023/02/01 04:29:33;;;;;;;4.68;2.70;;;3.00;99.90;;;;;;4936391;28;20047;-77
2023/02/01 04:32:01;;;;;;;4.40;4.00;;;3.00;99.90;;;;;;4936790;28;20055;-77
2023/02/01 04:34:29;;;;;;;3.53;2.90;;;3.00;99.90;;;;;;4935642;29;20051;-76
2023/02/01 04:36:56;;;;;;;4.13;3.83;;;3.00;99.90;;;;;;4949920;28;20054;-77
2023/02/01 04:39:24;;;;;;;3.50;3.20;;;3.00;99.90;;;;;;4938939;29;20500;-76
2023/02/01 04:41:52;;;;;;;4.03;3.60;;;3.00;99.90;;;;;;4934920;28;20056;-76
2023/02/01 04:44:20;;;;;;;3.78;3.47;;;3.00;99.90;;;;;;4939351;28;20054;-77
2023/02/01 04:46:47;;;;;;;4.68;3.30;;;3.00;99.90;;;;;;4942373;29;20046;-77
2023/02/01 04:49:15;;;;;;;3.28;2.97;;;3.00;99.90;;;;;;4945451;29;20047;-76
2023/02/01 04:51:47;;;;;;;4.45;3.58;;;3.10;99.90;;;;;;4942529;29;20047;-77
2023/02/01 04:54:15;;;;;;;5.03;4.28;;;3.10;99.90;;;;;;4948890;28;20063;-76
2023/02/01 04:56:46;;;;;;;4.00;3.70;;;3.10;99.90;;;;;;4919489;29;20421;-77
2023/02/01 04:59:13;;;;;;;4.80;3.40;;;3.10;99.90;;;;;;4938528;29;20051;-77
2023/02/01 05:01:41;;;;;;;4.18;3.35;;;3.10;99.90;;;;;;4942172;28;20497;-77
2023/02/01 05:04:09;;;;;;;4.10;3.70;;;3.10;99.90;;;;;;4935870;28;20051;-77
2023/02/01 05:06:37;;;;;;;3.63;3.33;;;3.10;99.90;;;;;;4937336;29;20051;-77
2023/02/01 05:09:05;;;;;;;3.83;3.13;;;3.10;99.90;;;;;;4933165;28;20054;-77
2023/02/01 05:14:19;;;;;;;3.55;3.25;;;3.10;99.90;;;;;;4942523;29;20817;-77
2023/02/01 05:16:47;;;;;;;4.72;4.32;;;3.10;99.90;;;;;;4935086;28;20047;-77
2023/02/01 05:19:15;;;;;;;4.32;3.92;;;3.20;99.90;;;;;;4928915;29;20070;-76
2023/02/01 05:21:42;;;;;;;3.90;3.03;;;3.20;99.90;;;;;;4945215;28;20054;-77
2023/02/01 05:24:10;;;;;;;6.75;4.18;;;3.20;99.90;;;;;;4938764;28;20074;-77
2023/02/01 05:26:42;;;;;;;4.72;3.63;;;3.20;99.90;;;;;;4944517;28;20059;-77
2023/02/01 05:29:10;;;;;;;4.22;3.20;;;3.20;99.90;;;;;;4943498;28;20058;-77
2023/02/01 05:31:38;;;;;;;4.15;3.58;;;3.20;99.90;;;;;;4948135;29;20367;-77
2023/02/01 05:34:07;;;;;;;6.53;5.18;;;3.30;99.90;;;;;;4939342;28;20043;-77
2023/02/01 05:36:35;;;;;;;5.07;4.55;;;3.30;99.90;;;;;;4947548;28;20044;-77
2023/02/01 05:39:03;;;;;;;8.38;4.38;;;3.30;99.90;;;;;;4942736;29;20090;-77
2023/02/01 05:41:31;;;;;;;4.70;4.25;;;3.30;99.90;;;;;;4945117;28;20067;-76
2023/02/01 05:43:59;;;;;;;3.10;2.75;;;3.30;99.90;;;;;;4955089;28;20062;-77
2023/02/01 05:46:26;;;;;;;5.43;4.18;;;3.20;99.90;;;;;;4938065;29;20048;-76
2023/02/01 05:48:54;;;;;;;7.18;4.20;;;3.30;99.90;;;;;;4928747;29;20514;-77
2023/02/01 05:56:35;;;;;;;9.88;5.13;;;3.30;99.90;;;;;;4934232;28;20039;-77
2023/02/01 05:59:03;;;;;;;3.40;3.13;;;3.30;99.90;;;;;;4949062;29;20055;-76
2023/02/01 06:01:30;;;;;;;5.15;4.65;;;3.30;99.90;;;;;;4954673;28;20051;-77
2023/02/01 06:04:00;;;;;;;11.35;5.40;;;3.20;99.90;;;;;;4954823;28;20066;-77
2023/02/01 06:06:27;;;;;;;4.40;3.90;;;3.20;99.90;;;;;;4954745;29;20054;-77
2023/02/01 06:08:55;;;;;;;4.22;2.80;;;3.20;99.90;;;;;;4954952;28;20058;-77
2023/02/01 06:11:22;;;;;;;5.22;4.72;;;3.20;99.90;;;;;;4955652;29;20043;-77
2023/02/01 06:13:59;;;;;;;6.03;4.10;;;3.20;99.90;;;;;;4954896;28;20054;-77
2023/02/01 06:16:27;;;;;;;3.83;3.53;;;3.20;99.90;;;;;;4955523;28;20047;-76
2023/02/01 06:18:55;;;;;;;6.40;4.35;;;3.20;99.90;;;;;;4948521;29;20416;-75
2023/02/01 06:21:26;;;;;;;3.47;3.13;;;3.10;99.90;;;;;;4957630;28;20031;-76
2023/02/01 06:23:54;;;;;;;3.30;3.00;;;3.20;99.90;;;;;;4953205;28;20049;-79
2023/02/01 06:26:23;;;;;;;3.90;3.60;;;3.00;99.90;;;;;;4967014;28;20031;-77
2023/02/01 06:28:51;;;;;;;6.80;5.05;;;3.10;99.90;;;;;;4961439;28;20047;-77
2023/02/01 06:31:19;;;;;;;3.50;3.28;;;3.10;99.90;;;;;;4961563;28;20043;-76
2023/02/01 06:33:47;;;;;;;5.38;3.53;;;3.10;99.90;;;;;;4961239;28;20050;-77
2023/02/01 06:36:15;;;;;;;4.53;3.50;;;3.10;99.90;;;;;;4975365;28;20031;-77
2023/02/01 06:38:43;;;;;;;5.43;4.20;;;3.20;99.90;;;;;;4975197;28;20055;-77
2023/02/01 06:41:11;;;;;;;5.72;3.63;;;3.10;99.90;;;;;;4974905;28;20047;-76
2023/02/01 06:43:39;;;;;;;5.97;5.38;;;3.10;99.90;;;;;;4962277;28;20066;-77
2023/02/01 06:46:11;;;;;;;6.90;4.65;;;3.10;99.90;;;;;;4969653;28;20043;-77
2023/02/01 06:48:38;;;;;;;;;;;3.10;99.90;;;;;;4959622;28;20043;-77
2023/02/01 06:51:15;;;;;;;5.35;4.78;;;3.10;99.90;;;;;;4974899;28;19910;-77
2023/02/01 06:53:43;;;;;;;5.07;4.65;;;3.10;99.90;;;;;;4971082;28;20039;-76
2023/02/01 06:56:11;;;;;;;4.82;3.90;;;3.20;99.90;;;;;;4954488;28;20054;-77
2023/02/01 06:58:38;;;;;;;3.97;3.58;;;3.30;99.90;;;;;;4970322;28;20043;-76
2023/02/01 07:01:08;;;;;;;4.35;3.35;;;3.30;99.90;;;;;;4959705;28;20052;-77
2023/02/01 07:03:37;;;;;;;4.60;3.25;;;3.30;99.90;;;;;;4946334;29;20063;-77
2023/02/01 07:06:06;;;;;;;6.90;4.47;;;3.20;99.90;;;;;;4941688;29;20051;-77
2023/02/01 07:08:37;;;;;;;4.72;4.10;;;3.30;99.90;;;;;;4939402;28;20067;-77
2023/02/01 07:11:07;;;;;;;5.50;5.00;;;3.30;99.90;;;;;;4933050;29;20492;-77
2023/02/01 07:13:35;;;;;;;6.30;4.28;;;3.30;99.90;;;;;;4944360;28;20054;-77
2023/02/01 07:16:06;;;;;;;5.93;3.42;;;3.30;99.90;;;;;;4934575;28;20055;-77
2023/02/01 07:18:33;;;;;;;4.53;3.83;;;3.30;99.90;;;;;;4934681;29;20052;-77
2023/02/01 07:21:01;;;;;;;6.28;4.78;;;3.30;99.90;;;;;;4932300;28;20048;-76
2023/02/01 07:23:29;;;;;;;6.82;4.07;;;3.30;99.90;;;;;;4937829;29;20062;-76
2023/02/01 07:25:58;;;;;;;6.03;4.10;;;3.40;99.90;;;;;;4940695;28;20051;-76
2023/02/01 07:28:26;;;;;;;5.28;3.67;;;3.40;99.90;;;;;;4940112;28;20039;-77
2023/02/01 07:30:54;;;;;;;3.33;3.10;;;3.40;99.90;;;;;;4927420;29;20789;-77
2023/02/01 07:33:24;;;;;;;3.60;3.10;;;3.40;99.90;;;;;;4939408;28;20051;-77
2023/02/01 07:35:55;;;;;;;5.93;4.18;;;3.40;99.90;;;;;;4904324;28;20051;-77
2023/02/01 07:38:23;;;;;;;4.18;3.70;;;3.40;99.90;;;;;;4951505;29;20490;-76
2023/02/01 07:40:51;;;;;;;3.92;3.63;;;3.30;99.90;;;;;;4949701;28;20047;-76
2023/02/01 07:43:18;;;;;;;3.45;3.15;;;3.40;99.90;;;;;;4952028;29;20047;-76
2023/02/01 07:45:51;;;;;;;3.22;2.92;;;3.40;99.90;;;;;;4940333;29;20058;-75
2023/02/01 07:48:20;;;;;;;3.58;2.78;;;3.30;99.90;;;;;;4945392;29;20635;-77
2023/02/01 07:51:05;;;;;;;3.88;3.17;;;3.40;99.90;;;;;;4941350;29;20047;-77
2023/02/01 07:53:35;;;;;;;3.78;3.38;;;3.30;99.90;;;;;;4941046;29;20531;-77
2023/02/01 07:56:03;;;;;;;3.55;3.22;;;3.30;99.90;;;;;;4937499;28;20411;-76
2023/02/01 07:58:31;;;;;;;3.28;2.97;;;3.40;99.90;;;;;;4969631;28;20170;-76
2023/02/01 08:03:45;;;;;;;3.63;3.33;;;3.40;99.90;;;;;;4973054;28;20507;-76
2023/02/01 08:06:13;;;;;;;6.10;3.30;;;3.50;99.90;;;;;;4969796;28;20054;-77
2023/02/01 08:08:42;;;;;;;4.35;2.55;;;3.50;99.90;;;;;;4963038;28;20051;-76
2023/02/01 08:11:09;;;;;;;3.70;2.83;;;3.50;99.90;;;;;;4937561;28;20063;-76
2023/02/01 08:13:37;;;;;;;8.05;2.70;;;3.50;99.90;;;;;;4943051;28;20055;-77
2023/02/01 08:16:08;;;;;;;2.72;2.53;;;3.50;99.90;;;;;;4958759;28;20433;-77
2023/02/01 08:18:38;;;;;;;5.95;2.72;;;3.50;99.90;;;;;;4971512;28;20059;-76
2023/02/01 08:21:15;;;;;;;3.60;2.33;;;3.50;99.90;;;;;;4965354;28;20050;-77
2023/02/01 08:23:43;;;;;;;3.22;3.03;;;3.40;99.90;;;;;;4961874;28;20074;-76
2023/02/01 08:26:19;;;;;;;4.70;3.20;;;3.50;99.90;;;;;;4956970;28;20062;-77
2023/02/01 08:28:59;;;;;;;2.67;2.47;;;3.50;99.90;;;;;;4937440;28;20047;-76
2023/02/01 08:31:29;;;;;;;4.22;3.40;;;3.50;99.90;;;;;;4966015;28;20432;-77
2023/02/01 08:33:59;;;;;;;2.88;2.40;;;3.50;99.90;;;;;;4959263;28;20059;-76
2023/02/01 08:36:29;;;;;;;3.53;3.22;;;3.50;99.90;;;;;;4944233;28;20053;-77
2023/02/01 08:38:57;;;;;;;2.55;2.10;;;3.50;99.90;;;;;;4965375;28;20474;-76
2023/02/01 08:41:28;;;;;;;4.38;2.80;;;3.50;99.90;;;;;;4944922;28;20047;-77
2023/02/01 08:44:00;;;;;;;3.45;2.92;;;3.50;99.90;;;;;;4959129;28;20660;-76
2023/02/01 08:46:27;;;;;;;5.13;4.70;;;3.50;99.90;;;;;;4966514;28;20490;-76
2023/02/01 08:48:56;;;;;;;2.80;2.53;;;3.50;99.90;;;;;;4961838;28;20773;-77
2023/02/01 08:51:23;;;;;;;2.88;2.53;;;3.60;99.90;;;;;;4964771;28;20805;-77
2023/02/01 08:53:51;;;;;;;3.28;2.63;;;3.60;99.90;;;;;;4937009;28;20444;-76
2023/02/01 08:56:20;;;;;;;2.58;2.38;;;3.70;99.90;;;;;;4937794;28;20046;-76
2023/02/01 08:58:47;;;;;;;3.25;2.35;;;3.70;99.90;;;;;;4962457;28;20051;-76
2023/02/01 09:01:16;;;;;;;2.55;2.35;;;3.80;99.90;;;;;;4965105;28;20043;-77
2023/02/01 09:03:45;;;;;;;5.10;3.17;;;3.80;99.90;;;;;;4965786;28;20058;-77
2023/02/01 09:06:15;;;;;;;3.53;2.33;;;3.90;99.90;;;;;;4964517;28;20065;-77
2023/02/01 09:08:44;;;;;;;3.03;2.78;;;4.00;99.90;;;;;;4956374;28;20058;-77
2023/02/01 09:11:14;;;;;;;3.00;2.67;;;4.10;99.90;;;;;;4946348;28;20514;-76
2023/02/01 09:13:42;;;;;;;3.55;3.33;;;4.10;99.90;;;;;;4967394;28;20326;-77
2023/02/01 09:16:14;;;;;;;5.90;2.53;;;4.10;99.90;;;;;;4944969;28;20051;-77
2023/02/01 09:18:42;;;;;;;5.05;2.63;;;4.10;99.90;;;;;;4960569;28;20058;-76
2023/02/01 09:21:29;;;;;;;2.80;2.28;;;4.10;99.90;;;;;;4957524;28;20046;-77
2023/02/01 09:23:56;;;;;;;4.80;3.03;;;4.10;99.90;;;;;;4957951;28;20058;-77
2023/02/01 09:26:25;;;;;;;3.67;3.20;;;4.00;99.90;;;;;;4946913;28;20047;-76
2023/02/01 09:29:00;;;;;;;2.92;2.72;;;4.00;99.90;;;;;;4960987;28;20050;-76
2023/02/01 09:31:28;;;;;;;3.55;3.25;;;4.00;99.90;;;;;;4957946;28;20055;-77
2023/02/01 09:33:56;;;;;;;3.53;2.35;;;4.10;99.90;;;;;;4966633;28;20570;-77
2023/02/01 09:36:24;;;;;;;2.83;2.03;;;4.10;99.90;;;;;;4951583;28;20051;-77
2023/02/01 09:38:53;;;;;;;3.60;2.35;;;4.20;99.90;;;;;;4947682;28;20046;-77
2023/02/01 09:41:39;;;;;;;3.60;2.80;;;4.30;99.90;;;;;;4964226;28;20053;-76
2023/02/01 09:44:37;;;;;;;3.45;2.15;;;4.50;99.90;;;;;;4957432;28;20066;-77
2023/02/01 09:47:14;;;;;;;3.17;2.72;;;4.60;99.90;;;;;;4964701;28;20073;-76
2023/02/01 09:50:00;;;;;;;2.78;2.58;;;4.70;99.90;;;;;;4898516;28;20074;-76
2023/02/01 09:52:36;;;;;;;2.60;2.45;;;4.70;99.90;;;;;;4949114;28;20816;-76
2023/02/01 09:55:11;;;;;;;2.75;2.58;;;4.70;99.90;;;;;;4961608;28;20502;-76
2023/02/01 09:57:57;;;;;;;2.53;2.33;;;4.60;99.90;;;;;;4958737;28;20587;-77
2023/02/01 10:00:39;;;;;;;2.35;2.20;;;4.60;99.90;;;;;;4958134;28;20047;-76
2023/02/01 10:03:13;;;;;;;1.85;1.77;;;4.60;99.90;;;;;;4932095;28;20431;-76
2023/02/01 10:06:18;;;;;;;3.28;2.97;;;4.50;99.90;;;;;;4939100;28;20052;-77
2023/02/01 10:09:07;;;;;;;2.15;2.03;;;4.60;99.90;;;;;;4963507;28;20049;-76
2023/02/01 10:11:55;;;;;;;2.60;2.40;;;4.60;99.90;;;;;;4965438;28;20042;-76
2023/02/01 10:14:34;;;;;;;3.42;2.58;;;4.60;99.90;;;;;;4958085;28;20047;-76
2023/02/01 10:17:08;;;;;;;5.72;1.88;;;4.60;99.90;;;;;;4941019;28;20039;-77
2023/02/01 10:20:01;;;;;;;2.50;2.38;;;4.60;99.90;;;;;;4959888;28;20058;-76
2023/02/01 10:23:00;;;;;;;3.10;2.85;;;4.60;99.90;;;;;;4940806;28;20539;-77
2023/02/01 10:25:57;;;;;;;2.83;2.53;;;4.70;99.90;;;;;;4920019;28;20050;-77
2023/02/01 10:28:25;;;;;;;3.15;2.45;;;4.70;99.90;;;;;;4953491;28;20546;-77
2023/02/01 10:30:59;;;;;;;4.93;2.97;;;4.70;99.90;;;;;;4958300;28;20062;-76
2023/02/01 10:33:46;;;;;;;2.90;2.63;;;4.70;99.90;;;;;;4959595;28;20059;-76
2023/02/01 10:36:21;;;;;;;1.73;1.63;;;4.70;99.90;;;;;;4940857;28;20419;-76
2023/02/01 10:38:49;;;;;;;3.08;2.78;;;4.70;99.90;;;;;;4957573;28;20579;-76
2023/02/01 10:41:20;;;;;;;3.83;2.90;;;4.70;99.90;;;;;;4960991;28;20372;-76
2023/02/01 10:43:50;;;;;;;;;;;4.70;99.90;;;;;;4947390;28;20050;-77
2023/02/01 10:46:18;;;;;;;2.58;2.47;;;4.70;99.90;;;;;;4955474;28;19926;-77
2023/02/01 10:48:49;;;;;;;3.28;2.92;;;4.70;99.90;;;;;;4953174;28;20047;-77
2023/02/01 10:51:34;;;;;;;4.20;3.28;;;4.70;99.90;;;;;;4956895;28;20063;-76
2023/02/01 10:54:16;;;;;;;3.33;2.92;;;4.70;99.90;;;;;;4962274;28;20274;-76
2023/02/01 10:56:47;;;;;;;2.83;2.20;;;4.70;99.90;;;;;;4961422;28;20059;-77
2023/02/01 10:59:23;;;;;;;3.83;3.58;;;4.70;99.90;;;;;;4934521;28;20047;-77
2023/02/01 11:01:59;;;;;;;3.33;2.22;;;4.70;99.90;;;;;;4941111;28;20059;-76
2023/02/01 11:04:35;;;;;;;3.47;3.17;;;4.70;99.90;;;;;;4945134;28;20047;-76
2023/02/01 11:07:22;;;;;;;2.85;2.63;;;4.70;99.90;;;;;;4942475;28;20066;-76
2023/02/01 11:09:54;;;;;;;3.80;2.83;;;4.70;99.90;;;;;;4935447;28;20061;-76
2023/02/01 11:12:31;;;;;;;3.00;2.78;;;4.70;99.90;;;;;;4966937;28;20042;-77
2023/02/01 11:15:20;;;;;;;2.17;2.08;;;4.70;99.90;;;;;;4973817;28;20131;-76
2023/02/01 11:17:56;;;;;;;2.63;1.98;;;4.70;99.90;;;;;;4969769;28;20066;-76
2023/02/01 11:20:35;;;;;;;3.30;1.90;;;4.70;99.90;;;;;;4966733;28;20043;-76
2023/02/01 11:27:33;;;;;;;7.82;2.65;;;4.80;99.90;;;;;;4943320;29;20050;-76
2023/02/01 11:30:41;;;;;;;3.97;2.55;;;4.80;99.90;;;;;;4941105;29;20055;-76
2023/02/01 11:33:18;;;;;;;3.08;2.88;;;4.80;99.90;;;;;;4970114;28;20063;-76
2023/02/01 11:35:47;;;;;;;9.63;2.90;;;4.70;99.90;;;;;;4972422;28;20059;-75
2023/02/01 11:38:21;;;;;;;2.95;2.72;;;4.80;99.90;;;;;;4959776;28;20039;-76
2023/02/01 11:40:49;;;;;;;3.92;3.40;;;4.70;99.90;;;;;;4976078;28;20043;-75
2023/02/01 11:43:27;;;;;;;3.30;3.08;;;4.60;99.90;;;;;;4979152;28;20406;-76
2023/02/01 11:45:56;;;;;;;2.53;2.33;;;4.60;99.90;;;;;;4976882;28;20039;-76
2023/02/01 11:48:27;;;;;;;3.22;2.95;;;4.50;99.90;;;;;;4974368;28;20388;-76
2023/02/01 11:51:02;;;;;;;3.45;3.25;;;4.50;99.90;;;;;;4975505;28;20062;-76
2023/02/01 11:53:56;;;;;;;3.00;2.70;;;4.50;99.90;;;;;;4974022;28;20046;-77
2023/02/01 11:56:29;;;;;;;;;;;4.50;99.90;;;;;;4955002;28;20043;-77
2023/02/01 11:59:34;;;;;;;5.20;3.95;;;4.40;99.90;;;;;;4952321;28;19911;-76
2023/02/01 12:02:26;;;;;;;4.47;3.35;;;4.40;99.90;;;;;;4960153;28;20053;-76
2023/02/01 12:05:18;;;;;;;2.95;2.75;;;4.40;99.90;;;;;;4975670;28;20039;-77
2023/02/01 12:07:46;;;;;;;4.07;3.58;;;4.40;99.90;;;;;;4964113;28;20043;-77
2023/02/01 12:10:46;;;;;;;4.25;3.60;;;4.40;99.90;;;;;;4968562;28;20043;-77
2023/02/01 12:13:33;;;;;;;3.13;2.45;;;4.40;99.90;;;;;;4937295;28;20057;-77
2023/02/01 12:16:20;;;;;;;5.15;4.43;;;4.40;99.90;;;;;;4967897;28;20033;-76
2023/02/01 12:19:09;;;;;;;3.78;2.85;;;4.40;99.90;;;;;;4960341;28;20034;-76
2023/02/01 12:21:53;;;;;;;2.80;2.60;;;4.40;99.90;;;;;;4974712;28;20047;-76
2023/02/01 12:24:32;;;;;;;5.55;3.78;;;4.40;99.90;;;;;;4951234;28;20035;-77
2023/02/01 12:27:25;;;;;;;3.55;3.20;;;4.40;99.90;;;;;;4972302;28;20039;-76
2023/02/01 12:30:17;;;;;;;7.85;2.60;;;4.40;99.90;;;;;;4974064;28;20043;-77
2023/02/01 12:33:03;;;;;;;4.20;2.83;;;4.40;99.90;;;;;;4974071;28;20051;-76
2023/02/01 12:36:00;;;;;;;6.22;5.05;;;4.40;99.90;;;;;;4967367;28;20047;-78
2023/02/01 12:38:41;;;;;;;3.00;2.80;;;4.30;99.90;;;;;;4929533;29;20103;-77
2023/02/01 12:41:29;;;;;;;3.88;3.53;;;4.30;99.90;;;;;;4923667;28;20043;-77
2023/02/01 12:44:17;;;;;;;5.47;2.90;;;4.30;99.90;;;;;;4926656;28;20051;-78
2023/02/01 12:46:52;;;;;;;7.20;3.65;;;4.30;99.90;;;;;;4920608;28;20063;-77
2023/02/01 12:49:30;;;;;;;3.90;3.60;;;4.30;99.90;;;;;;4942693;28;20043;-78
2023/02/01 12:52:02;;;;;;;7.55;3.53;;;4.30;99.90;;;;;;4924568;28;20051;-77
2023/02/01 12:54:50;;;;;;;3.13;2.92;;;4.20;99.90;;;;;;4945338;28;20421;-77
2023/02/01 12:57:24;;;;;;;4.53;3.95;;;4.20;99.90;;;;;;4941862;28;20048;-77
2023/02/01 13:00:24;;;;;;;4.45;4.05;;;4.30;99.90;;;;;;4944883;28;20051;-78
2023/02/01 13:03:04;;;;;;;4.32;3.67;;;4.20;99.90;;;;;;4918626;29;20063;-76
2023/02/01 13:05:58;;;;;;;8.85;4.43;;;4.20;99.90;;;;;;4939346;28;20047;-77
2023/02/01 13:08:51;;;;;;;3.90;3.38;;;4.20;99.90;;;;;;4929534;28;20051;-78
2023/02/01 13:11:32;;;;;;;2.55;2.30;;;4.10;99.90;;;;;;4933145;29;20062;-78
2023/02/01 13:14:46;;;;;;;3.80;3.27;;;4.10;99.90;;;;;;4943340;28;20403;-78
2023/02/01 13:17:20;;;;;;;6.80;3.58;;;4.00;99.90;;;;;;4856166;29;20192;-78
2023/02/01 13:19:58;;;;;;;4.30;2.35;;;4.00;99.90;;;;;;4867360;29;20064;-78
2023/02/01 13:22:46;;;;;;;4.15;3.10;;;4.00;99.90;;;;;;4910183;28;20059;-78
2023/02/01 13:25:49;;;;;;;11.20;4.28;;;3.90;99.90;;;;;;4937020;28;20055;-77
2023/02/01 13:28:23;;;;;;;4.13;3.80;;;4.00;99.90;;;;;;4904390;28;20699;-78
2023/02/01 13:30:59;;;;;;;3.85;2.97;;;4.10;99.90;;;;;;4943373;28;20043;-78
2023/02/01 13:33:44;;;;;;;3.38;2.55;;;4.10;99.90;;;;;;4931283;28;20372;-78
2023/02/01 13:36:46;;;;;;;3.13;2.58;;;4.00;99.90;;;;;;4932326;28;20070;-79
2023/02/01 13:39:55;;;;;;;12.02;3.78;;;4.10;99.90;;;;;;4930067;28;20063;-78
2023/02/01 13:42:33;;;;;;;4.70;3.30;;;4.10;99.90;;;;;;4918946;29;20062;-78
2023/02/01 13:45:05;;;;;;;5.30;3.42;;;4.20;99.90;;;;;;4935929;28;20059;-78
2023/02/01 13:47:42;;;;;;;2.72;2.53;;;4.20;99.90;;;;;;4948406;28;20055;-78
2023/02/01 13:50:40;;;;;;;8.32;3.50;;;4.20;99.90;;;;;;5040485;27;20443;-33
2023/02/01 13:53:11;;;;;;;3.65;3.35;;;4.20;99.90;;;;;;5035085;28;20405;-34
2023/02/01 13:55:41;;;;;;;3.80;3.50;;;4.20;99.90;;;;;;5041099;28;20573;-34
2023/02/01 13:58:12;;;;;;;10.70;3.67;;;4.20;99.90;;;;;;5041628;28;20591;-35
2023/02/01 14:00:43;;;;;;;8.13;3.80;;;4.10;99.90;;;;;;5039744;28;20041;-34
2023/02/01 14:03:16;;;;;;;3.08;1.92;;;4.10;99.90;;;;;;5038736;28;20053;-35
2023/02/01 14:05:46;;;;;;;3.78;3.38;;;4.10;99.90;;;;;;5040757;28;20049;-34
2023/02/01 14:08:39;;;;;;;3.25;3.00;;;4.10;99.90;;;;;;5040487;28;20655;-35
2023/02/01 14:11:26;;;;;;;3.90;2.75;;;4.00;99.90;;;;;;5028207;28;20053;-35